Time;durP1;ratioP1;P1;durP2;ratioP2;P2;SDS_P1;SDS_P2;PMS_P1;PMS_P2;Temp;Humidity;BMP_temperature;BMP_pressure;BME280_temperature;BME280_humidity;BME280_pressure;Samples;Min_cycle;Max_cycle;Signal;HPM_P1;HPM_P2
2023/03/28 00:00:49;;;;;;;9.35;4.93;;;5.00;99.90;;;;;;4919851;29;20103;-69
2023/03/28 00:03:17;;;;;;;16.90;5.47;;;5.00;99.90;;;;;;4917163;29;20482;-69
2023/03/28 00:05:47;;;;;;;9.43;4.95;;;5.00;99.90;;;;;;4918052;29;20111;-69
2023/03/28 00:08:13;;;;;;;14.95;5.57;;;4.90;99.90;;;;;;4929408;29;20024;-70
2023/03/28 00:10:39;;;;;;;11.52;5.40;;;4.90;99.90;;;;;;4930011;29;20036;-69
2023/03/28 00:13:05;;;;;;;15.32;5.57;;;4.90;99.90;;;;;;4928918;29;20437;-70
2023/03/28 00:15:30;;;;;;;12.38;4.95;;;4.80;99.90;;;;;;4933578;29;20049;-70
2023/03/28 00:17:59;;;;;;;15.18;5.20;;;4.80;99.90;;;;;;4929346;29;20504;-69
2023/03/28 00:20:26;;;;;;;9.55;5.20;;;4.70;99.90;;;;;;4942439;28;20392;-70
2023/03/28 00:22:53;;;;;;;9.88;4.53;;;4.70;99.90;;;;;;4929108;29;20111;-68
2023/03/28 00:25:19;;;;;;;10.02;4.43;;;4.70;99.90;;;;;;4927061;29;20117;-72
2023/03/28 00:27:45;;;;;;;11.95;5.10;;;4.70;99.90;;;;;;4931155;29;20052;-70
2023/03/28 00:30:11;;;;;;;9.13;4.70;;;4.60;99.90;;;;;;4930569;29;20123;-71
2023/03/28 00:32:37;;;;;;;15.13;5.25;;;4.60;99.90;;;;;;4923549;29;20021;-69
2023/03/28 00:35:03;;;;;;;14.75;5.55;;;4.60;99.90;;;;;;4931993;29;20054;-69
2023/03/28 00:37:30;;;;;;;15.40;5.50;;;4.60;99.90;;;;;;4929706;29;20032;-69
2023/03/28 00:39:58;;;;;;;13.25;5.65;;;4.50;99.90;;;;;;4928484;29;20392;-69
2023/03/28 00:42:25;;;;;;;12.73;5.45;;;4.50;99.90;;;;;;4929885;29;20020;-69
2023/03/28 00:44:55;;;;;;;11.95;4.90;;;4.40;99.90;;;;;;4925865;29;20023;-70
2023/03/28 00:47:24;;;;;;;10.60;5.30;;;4.40;99.90;;;;;;4923546;29;20024;-68
2023/03/28 00:49:56;;;;;;;10.85;5.47;;;4.30;99.90;;;;;;4927554;29;20385;-69
2023/03/28 00:52:28;;;;;;;13.15;5.15;;;4.40;99.90;;;;;;4928885;29;20480;-69
2023/03/28 00:54:56;;;;;;;14.05;5.53;;;4.40;99.90;;;;;;4925099;29;20024;-69
2023/03/28 00:57:24;;;;;;;15.40;5.82;;;4.30;99.90;;;;;;4928533;29;20078;-69
2023/03/28 00:59:50;;;;;;;11.93;5.43;;;4.30;99.90;;;;;;4933285;29;20100;-70
2023/03/28 01:02:17;;;;;;;17.95;6.10;;;4.20;99.90;;;;;;4924391;29;20493;-69
2023/03/28 01:04:58;;;;;;;18.23;5.80;;;4.20;99.90;;;;;;4929565;29;20494;-69
2023/03/28 01:07:28;;;;;;;14.35;5.20;;;4.20;99.90;;;;;;4934248;29;20055;-71
2023/03/28 01:09:54;;;;;;;9.63;5.60;;;4.30;99.90;;;;;;4930985;29;20488;-69
2023/03/28 01:12:21;;;;;;;9.57;5.15;;;4.10;99.90;;;;;;4937057;29;20066;-69
2023/03/28 01:14:47;;;;;;;12.10;5.65;;;4.10;99.90;;;;;;4926396;29;20477;-69
2023/03/28 01:17:14;;;;;;;13.68;5.10;;;4.00;99.90;;;;;;4935132;29;20030;-69
2023/03/28 01:19:50;;;;;;;12.98;5.25;;;4.00;99.90;;;;;;4933504;29;20392;-69
2023/03/28 01:22:49;;;;;;;17.02;6.30;;;4.00;99.90;;;;;;4932273;29;20082;-69
2023/03/28 01:25:44;;;;;;;16.10;6.03;;;4.10;99.90;;;;;;4931464;29;20030;-69
2023/03/28 01:28:27;;;;;;;14.60;5.80;;;4.10;99.90;;;;;;4918112;29;20040;-69
2023/03/28 01:31:27;;;;;;;15.93;6.10;;;4.10;99.90;;;;;;4927904;29;20163;-69
2023/03/28 01:34:28;;;;;;;15.63;5.32;;;4.10;99.90;;;;;;4934546;29;20043;-69
2023/03/28 01:37:09;;;;;;;13.00;5.82;;;4.10;99.90;;;;;;4932764;29;20036;-69
2023/03/28 01:39:53;;;;;;;16.20;6.18;;;4.00;99.90;;;;;;4927464;29;20043;-69
2023/03/28 01:42:44;;;;;;;14.52;6.45;;;4.00;99.90;;;;;;4938195;29;20094;-69
2023/03/28 01:45:18;;;;;;;16.13;6.10;;;3.90;99.90;;;;;;4931452;29;20034;-69
2023/03/28 01:48:27;;;;;;;18.10;5.70;;;3.90;99.90;;;;;;4926700;29;20477;-69
2023/03/28 01:51:07;;;;;;;12.05;6.35;;;3.90;99.90;;;;;;4931456;29;20040;-69
2023/03/28 01:54:11;;;;;;;13.23;6.28;;;3.90;99.90;;;;;;4933715;29;20028;-69
2023/03/28 01:56:39;;;;;;;11.13;5.25;;;3.90;99.90;;;;;;4912246;29;20264;-69
2023/03/28 01:59:17;;;;;;;10.18;5.28;;;3.80;99.90;;;;;;4922937;29;20147;-69
2023/03/28 02:02:17;;;;;;;12.23;6.10;;;3.80;99.90;;;;;;4931000;29;20107;-69
2023/03/28 02:04:45;;;;;;;18.75;6.63;;;3.80;99.90;;;;;;4928327;29;20044;-70
2023/03/28 02:07:12;;;;;;;16.65;5.63;;;3.80;99.90;;;;;;4934130;29;20028;-71
2023/03/28 02:09:43;;;;;;;17.60;6.43;;;3.80;99.90;;;;;;4935518;29;20401;-69
2023/03/28 02:12:16;;;;;;;14.95;5.95;;;3.80;99.90;;;;;;4937283;29;20062;-70
2023/03/28 02:14:42;;;;;;;;;;;3.80;99.90;;;;;;4931428;29;20024;-67
2023/03/28 02:17:14;;;;;;;13.27;5.13;;;3.80;99.90;;;;;;4929123;29;19907;-69
2023/03/28 02:19:46;;;;;;;14.18;5.78;;;3.80;99.90;;;;;;4928822;29;20036;-70
2023/03/28 02:22:29;;;;;;;16.40;5.13;;;3.80;99.90;;;;;;4933678;29;20024;-70
2023/03/28 02:24:55;;;;;;;15.65;6.00;;;3.70;99.90;;;;;;4927575;29;20119;-69
2023/03/28 02:27:21;;;;;;;17.65;5.57;;;3.70;99.90;;;;;;4930298;29;20098;-69
2023/03/28 02:29:48;;;;;;;12.98;5.93;;;3.70;99.90;;;;;;4925299;29;20734;-69
2023/03/28 02:32:20;;;;;;;16.10;6.20;;;3.70;99.90;;;;;;4934391;29;20036;-69
2023/03/28 02:34:47;;;;;;;13.27;6.38;;;3.70;99.90;;;;;;4930280;29;20035;-69
2023/03/28 02:37:34;;;;;;;14.25;6.38;;;3.70;99.90;;;;;;4928064;29;20490;-70
2023/03/28 02:40:21;;;;;;;13.48;7.20;;;3.70;99.90;;;;;;4929621;29;20043;-69
2023/03/28 02:42:54;;;;;;;15.57;6.57;;;3.80;99.90;;;;;;4932760;29;20028;-69
2023/03/28 02:45:47;;;;;;;10.63;6.03;;;3.80;99.90;;;;;;4928129;29;20396;-69
2023/03/28 02:48:38;;;;;;;14.90;6.32;;;3.70;99.90;;;;;;4932564;29;20041;-70
2023/03/28 02:51:09;;;;;;;14.25;6.18;;;3.70;99.90;;;;;;4925656;29;20050;-69
2023/03/28 02:54:05;;;;;;;15.07;6.20;;;3.70;99.90;;;;;;4933353;29;20028;-69
2023/03/28 02:56:50;;;;;;;19.90;7.18;;;3.60;99.90;;;;;;4930433;29;20509;-69
2023/03/28 02:59:26;;;;;;;17.48;7.32;;;3.60;99.90;;;;;;4930521;29;20087;-69
2023/03/28 03:01:52;;;;;;;17.40;7.22;;;3.50;99.90;;;;;;4932032;29;20028;-69
2023/03/28 03:04:18;;;;;;;27.23;7.75;;;3.60;99.90;;;;;;4927961;29;20481;-69
2023/03/28 03:06:47;;;;;;;14.00;7.82;;;3.60;99.90;;;;;;4930307;29;20032;-69
2023/03/28 03:09:13;;;;;;;19.77;8.52;;;3.60;99.90;;;;;;4933723;29;20016;-69
2023/03/28 03:11:39;;;;;;;17.85;8.95;;;3.60;99.90;;;;;;4928892;29;20024;-69
2023/03/28 03:14:05;;;;;;;20.83;9.10;;;3.50;99.90;;;;;;4929763;29;20027;-69
2023/03/28 03:16:30;;;;;;;20.17;9.20;;;3.50;99.90;;;;;;4927177;29;20031;-69
2023/03/28 03:18:56;;;;;;;18.10;9.18;;;3.50;99.90;;;;;;4928263;29;20126;-69
2023/03/28 03:21:24;;;;;;;24.98;10.52;;;3.50;99.90;;;;;;4935529;29;20027;-69
2023/03/28 03:23:49;;;;;;;20.05;10.82;;;3.50;99.90;;;;;;4928777;29;20039;-68
2023/03/28 03:26:16;;;;;;;16.88;10.50;;;3.50;99.90;;;;;;4932844;29;20028;-69
2023/03/28 03:28:41;;;;;;;22.23;11.40;;;3.50;99.90;;;;;;4930787;29;20024;-69
2023/03/28 03:31:07;;;;;;;23.55;12.07;;;3.50;99.90;;;;;;4934483;29;20387;-69
2023/03/28 03:33:36;;;;;;;23.85;12.05;;;3.50;99.90;;;;;;4924798;29;20389;-69
2023/03/28 03:36:03;;;;;;;29.30;11.73;;;3.40;99.90;;;;;;4921988;29;20047;-69
2023/03/28 03:38:29;;;;;;;22.85;12.18;;;3.40;99.90;;;;;;4935006;29;20032;-68
2023/03/28 03:40:55;;;;;;;23.55;11.70;;;3.40;99.90;;;;;;4929561;29;20421;-68
2023/03/28 03:43:20;;;;;;;21.55;12.95;;;3.30;99.90;;;;;;4924150;29;20030;-68
2023/03/28 03:45:46;;;;;;;30.75;13.98;;;3.30;99.90;;;;;;4928583;29;20031;-68
2023/03/28 03:48:12;;;;;;;24.88;12.82;;;3.30;99.90;;;;;;4934968;29;20031;-68
2023/03/28 03:50:38;;;;;;;29.75;13.27;;;3.30;99.90;;;;;;4930574;29;20445;-69
2023/03/28 03:53:03;;;;;;;28.23;12.57;;;3.30;99.90;;;;;;4932246;29;20016;-69
2023/03/28 03:55:29;;;;;;;26.75;13.02;;;3.20;99.90;;;;;;4929009;29;20478;-69
2023/03/28 03:57:55;;;;;;;28.42;12.88;;;3.20;99.90;;;;;;4933787;29;20079;-68
2023/03/28 04:00:20;;;;;;;26.48;13.52;;;3.30;99.90;;;;;;4930193;29;20448;-68
2023/03/28 04:02:47;;;;;;;23.88;12.95;;;3.30;99.90;;;;;;4930933;29;20020;-68
2023/03/28 04:05:13;;;;;;;24.15;13.70;;;3.20;99.90;;;;;;4933079;29;20389;-68
2023/03/28 04:07:38;;;;;;;23.60;13.02;;;3.20;99.90;;;;;;4936026;29;20020;-67
2023/03/28 04:10:05;;;;;;;24.80;11.75;;;3.30;99.90;;;;;;4927267;29;20036;-67
2023/03/28 04:12:30;;;;;;;25.63;12.30;;;3.30;99.90;;;;;;4929729;29;20400;-67
2023/03/28 04:14:56;;;;;;;25.55;12.45;;;3.20;99.90;;;;;;4925821;29;20034;-67
2023/03/28 04:17:28;;;;;;;22.73;11.32;;;3.20;99.90;;;;;;4926935;29;20035;-67
2023/03/28 04:19:54;;;;;;;21.77;11.25;;;3.20;99.90;;;;;;4926515;29;20073;-68
2023/03/28 04:22:21;;;;;;;22.58;12.52;;;3.20;99.90;;;;;;4927522;29;20095;-67
2023/03/28 04:24:48;;;;;;;29.58;12.43;;;3.10;99.90;;;;;;4920076;29;20176;-67
2023/03/28 04:27:16;;;;;;;24.88;10.90;;;3.10;99.90;;;;;;4933993;29;20075;-68
2023/03/28 04:29:42;;;;;;;19.52;10.95;;;3.10;99.90;;;;;;4918678;29;20031;-67
2023/03/28 04:32:10;;;;;;;29.27;12.10;;;3.10;99.90;;;;;;4926908;29;20401;-67
2023/03/28 04:34:36;;;;;;;25.08;11.90;;;3.10;99.90;;;;;;4933144;29;20034;-67
2023/03/28 04:37:04;;;;;;;27.98;11.70;;;3.10;99.90;;;;;;4939900;28;20023;-67
2023/03/28 04:39:34;;;;;;;23.20;11.85;;;3.20;99.90;;;;;;4928226;29;20036;-67
2023/03/28 04:42:03;;;;;;;20.13;11.60;;;3.10;99.90;;;;;;4925206;29;20529;-67
2023/03/28 04:44:29;;;;;;;28.80;12.32;;;3.10;99.90;;;;;;4928472;29;20028;-67
2023/03/28 04:46:55;;;;;;;25.00;12.57;;;3.10;99.90;;;;;;4934408;29;20034;-67
2023/03/28 04:49:21;;;;;;;28.42;13.32;;;3.00;99.90;;;;;;4935039;29;20034;-67
2023/03/28 04:51:47;;;;;;;23.67;12.32;;;3.00;99.90;;;;;;4928154;29;20115;-67
2023/03/28 04:54:13;;;;;;;25.00;12.65;;;3.00;99.90;;;;;;4932912;29;20035;-67
2023/03/28 04:56:39;;;;;;;30.08;12.60;;;3.00;99.90;;;;;;4930713;29;20349;-67
2023/03/28 04:59:05;;;;;;;25.05;12.05;;;3.00;99.90;;;;;;4929058;29;20038;-68
2023/03/28 05:01:31;;;;;;;29.88;12.85;;;3.00;99.90;;;;;;4932940;29;20043;-67
2023/03/28 05:03:57;;;;;;;19.08;12.25;;;3.00;99.90;;;;;;4927755;29;20466;-67
2023/03/28 05:06:24;;;;;;;16.92;11.43;;;3.00;99.90;;;;;;4932289;29;20036;-67
2023/03/28 05:08:50;;;;;;;23.45;12.07;;;3.00;99.90;;;;;;4928539;29;20381;-67
2023/03/28 05:11:16;;;;;;;23.48;11.35;;;3.00;99.90;;;;;;4928390;29;20028;-67
2023/03/28 05:13:41;;;;;;;22.77;10.68;;;3.00;99.90;;;;;;4928138;29;20112;-67
2023/03/28 05:16:07;;;;;;;22.67;10.88;;;3.00;99.90;;;;;;4928568;29;20102;-67
2023/03/28 05:18:33;;;;;;;17.58;9.93;;;3.00;99.90;;;;;;4934365;29;20028;-67
2023/03/28 05:20:59;;;;;;;21.60;9.73;;;3.00;99.90;;;;;;4934356;29;20032;-67
2023/03/28 05:23:25;;;;;;;18.48;9.15;;;3.00;99.90;;;;;;4934101;29;20027;-68
2023/03/28 05:25:52;;;;;;;23.23;9.18;;;3.00;99.90;;;;;;4923701;29;20028;-67
2023/03/28 05:28:18;;;;;;;26.08;10.70;;;3.00;99.90;;;;;;4931665;29;20103;-67
2023/03/28 05:30:44;;;;;;;20.48;9.50;;;3.00;99.90;;;;;;4924608;29;20106;-67
2023/03/28 05:33:10;;;;;;;17.90;9.10;;;3.00;99.90;;;;;;4925612;29;20024;-67
2023/03/28 05:35:36;;;;;;;31.02;10.20;;;3.00;99.90;;;;;;4924590;29;20038;-67
2023/03/28 05:38:03;;;;;;;22.15;9.68;;;3.00;99.90;;;;;;4929582;29;20032;-68
2023/03/28 05:40:29;;;;;;;23.45;9.50;;;2.90;99.90;;;;;;4931715;29;20051;-67
2023/03/28 05:42:55;;;;;;;28.38;10.52;;;2.90;99.90;;;;;;4929926;29;20020;-67
2023/03/28 05:45:21;;;;;;;20.80;8.73;;;2.80;99.90;;;;;;4927081;29;20099;-66
2023/03/28 05:47:50;;;;;;;27.13;9.13;;;2.80;99.90;;;;;;4934854;29;20024;-67
2023/03/28 05:50:16;;;;;;;19.50;8.65;;;2.80;99.90;;;;;;4931570;29;20051;-67
2023/03/28 05:52:42;;;;;;;25.33;9.18;;;2.80;99.90;;;;;;4930946;29;20051;-67
2023/03/28 05:55:07;;;;;;;23.85;9.38;;;2.80;99.90;;;;;;4936182;29;20429;-68
2023/03/28 05:57:33;;;;;;;16.15;8.30;;;2.80;99.90;;;;;;4931000;28;20043;-67
2023/03/28 05:59:59;;;;;;;20.20;9.02;;;2.80;99.90;;;;;;4933298;29;20130;-67
2023/03/28 06:02:25;;;;;;;20.70;8.63;;;2.80;99.90;;;;;;4933103;29;20473;-67
2023/03/28 06:04:54;;;;;;;23.35;8.93;;;2.80;99.90;;;;;;4927651;29;20099;-67
2023/03/28 06:07:20;;;;;;;33.72;10.15;;;2.80;99.90;;;;;;4935176;29;20035;-66
2023/03/28 06:09:45;;;;;;;27.65;10.43;;;2.70;99.90;;;;;;4928848;29;20040;-67
2023/03/28 06:12:11;;;;;;;24.15;11.05;;;2.80;99.90;;;;;;4926227;29;20024;-67
2023/03/28 06:14:37;;;;;;;22.92;11.55;;;2.80;99.90;;;;;;4936463;28;20073;-67
2023/03/28 06:17:02;;;;;;;25.83;10.85;;;2.80;99.90;;;;;;4929804;29;20028;-67
2023/03/28 06:19:28;;;;;;;23.20;10.77;;;2.80;99.90;;;;;;4930703;29;20032;-67
2023/03/28 06:21:54;;;;;;;18.30;10.93;;;2.90;99.90;;;;;;4930303;29;20035;-67
2023/03/28 06:24:19;;;;;;;22.83;11.70;;;2.90;99.90;;;;;;4927698;29;20031;-67
2023/03/28 06:26:45;;;;;;;30.35;11.60;;;2.90;99.90;;;;;;4927600;29;20492;-67
2023/03/28 06:29:11;;;;;;;29.15;12.30;;;3.00;99.90;;;;;;4926755;29;20020;-67
2023/03/28 06:31:36;;;;;;;24.35;11.52;;;3.10;99.90;;;;;;4929238;29;20042;-67
2023/03/28 06:34:02;;;;;;;28.27;11.52;;;3.10;99.90;;;;;;4925373;29;20028;-67
2023/03/28 06:36:28;;;;;;;19.92;11.23;;;3.20;99.90;;;;;;4928418;29;20388;-67
2023/03/28 06:38:53;;;;;;;25.58;11.75;;;3.10;99.90;;;;;;4931557;29;20131;-67
2023/03/28 06:41:19;;;;;;;24.50;12.95;;;3.10;99.90;;;;;;4922902;29;20028;-67
2023/03/28 06:43:45;;;;;;;24.92;11.80;;;3.10;99.90;;;;;;4925595;29;20540;-67
2023/03/28 06:46:12;;;;;;;28.65;11.93;;;3.20;99.90;;;;;;4929342;29;20114;-68
2023/03/28 06:48:38;;;;;;;27.80;12.40;;;3.20;99.90;;;;;;4926440;29;20403;-66
2023/03/28 06:51:04;;;;;;;35.22;12.15;;;3.30;99.90;;;;;;4928134;29;20032;-69
2023/03/28 06:53:30;;;;;;;24.48;11.13;;;3.30;99.90;;;;;;4930167;28;20389;-69
2023/03/28 06:55:56;;;;;;;29.65;10.90;;;3.40;99.90;;;;;;4924670;29;20032;-70
2023/03/28 06:58:22;;;;;;;26.77;10.90;;;3.50;99.90;;;;;;4932812;29;20023;-70
2023/03/28 07:00:51;;;;;;;27.80;10.88;;;3.50;99.90;;;;;;4922623;29;20358;-70
2023/03/28 07:03:16;;;;;;;23.27;10.52;;;3.60;99.90;;;;;;4925946;29;20016;-69
2023/03/28 07:05:42;;;;;;;20.85;10.30;;;3.60;99.90;;;;;;4927186;29;20086;-70
2023/03/28 07:08:10;;;;;;;25.33;11.73;;;3.60;99.90;;;;;;4929118;29;20802;-70
2023/03/28 07:10:37;;;;;;;25.95;11.48;;;3.70;99.90;;;;;;4927396;29;20042;-70
2023/03/28 07:13:03;;;;;;;22.45;12.07;;;3.60;99.90;;;;;;4933451;29;22194;-70
2023/03/28 07:15:29;;;;;;;19.80;9.93;;;3.70;99.90;;;;;;4926919;29;20043;-70
2023/03/28 07:17:54;;;;;;;19.88;9.80;;;3.80;99.90;;;;;;4927000;29;20074;-70
2023/03/28 07:20:20;;;;;;;20.95;9.43;;;3.90;99.90;;;;;;4928712;29;20032;-70
2023/03/28 07:22:46;;;;;;;21.85;10.48;;;3.90;99.90;;;;;;4933716;29;20031;-70
2023/03/28 07:25:12;;;;;;;22.23;9.68;;;3.90;99.90;;;;;;4930067;29;20437;-70
2023/03/28 07:27:38;;;;;;;22.83;11.65;;;4.00;99.90;;;;;;4925358;29;20027;-69
2023/03/28 07:30:04;;;;;;;21.48;10.07;;;4.00;99.90;;;;;;4929816;29;20047;-69
2023/03/28 07:32:30;;;;;;;21.40;9.68;;;4.10;99.90;;;;;;4936314;28;20067;-68
2023/03/28 07:34:55;;;;;;;24.33;10.40;;;4.20;99.90;;;;;;4921133;29;20078;-68
2023/03/28 07:37:21;;;;;;;23.05;9.68;;;4.20;99.90;;;;;;4922068;29;20043;-68
2023/03/28 07:39:47;;;;;;;18.75;9.88;;;4.40;99.90;;;;;;4925565;29;20067;-69
2023/03/28 07:42:14;;;;;;;20.75;8.23;;;4.50;99.90;;;;;;4925535;29;20055;-68
2023/03/28 07:44:40;;;;;;;18.58;7.85;;;4.60;99.90;;;;;;4933875;29;20031;-69
2023/03/28 07:47:06;;;;;;;20.88;9.13;;;4.60;99.90;;;;;;4927498;29;20031;-69
2023/03/28 07:49:32;;;;;;;23.83;9.05;;;4.70;99.90;;;;;;4932709;29;20042;-69
2023/03/28 07:51:58;;;;;;;23.20;9.38;;;4.70;99.90;;;;;;4933405;29;20019;-69
2023/03/28 07:54:27;;;;;;;19.48;8.60;;;4.70;99.90;;;;;;4930403;29;20481;-68
2023/03/28 07:56:53;;;;;;;21.60;9.13;;;4.70;99.90;;;;;;4932135;29;20027;-69
2023/03/28 07:59:18;;;;;;;18.67;7.95;;;4.80;99.90;;;;;;4931014;29;20509;-69
2023/03/28 08:01:44;;;;;;;15.57;7.88;;;4.90;99.90;;;;;;4931772;28;20027;-70
2023/03/28 08:04:11;;;;;;;18.33;7.28;;;5.00;99.90;;;;;;4945321;28;20393;-71
2023/03/28 08:06:38;;;;;;;17.63;8.65;;;5.20;99.90;;;;;;4935976;29;20170;-71
2023/03/28 08:09:09;;;;;;;20.20;7.80;;;5.30;99.90;;;;;;4928921;29;20028;-70
2023/03/28 08:11:36;;;;;;;15.93;6.90;;;5.50;99.90;;;;;;4929620;29;20488;-71
2023/03/28 08:14:03;;;;;;;19.85;7.88;;;5.60;99.90;;;;;;4922029;29;20021;-71
2023/03/28 08:16:29;;;;;;;17.70;6.88;;;5.60;99.90;;;;;;4927904;29;20100;-70
2023/03/28 08:18:55;;;;;;;17.40;6.82;;;5.80;99.90;;;;;;4919765;29;20051;-71
2023/03/28 08:21:21;;;;;;;20.10;7.03;;;5.70;99.90;;;;;;4933696;29;20114;-71
2023/03/28 08:23:46;;;;;;;15.60;6.45;;;5.80;99.90;;;;;;4927734;29;20032;-71
2023/03/28 08:26:12;;;;;;;11.57;6.10;;;6.00;99.90;;;;;;4931099;29;20496;-71
2023/03/28 08:28:38;;;;;;;10.63;5.95;;;6.30;99.90;;;;;;4934853;29;20102;-70
2023/03/28 08:31:12;;;;;;;12.85;5.60;;;6.30;99.90;;;;;;4932544;29;20040;-71
2023/03/28 08:33:39;;;;;;;20.52;5.70;;;6.50;99.90;;;;;;4938705;29;20056;-72
2023/03/28 08:36:05;;;;;;;15.23;5.97;;;6.60;99.90;;;;;;4930051;29;20043;-70
2023/03/28 08:38:31;;;;;;;15.32;5.32;;;6.60;99.90;;;;;;4931154;29;20059;-71
2023/03/28 08:41:16;;;;;;;12.43;5.25;;;6.70;99.90;;;;;;4937204;29;20035;-72
2023/03/28 08:44:03;;;;;;;12.95;5.38;;;6.60;99.90;;;;;;4932111;29;20065;-71
2023/03/28 08:46:30;;;;;;;20.92;5.55;;;6.80;99.90;;;;;;4930563;29;20064;-70
2023/03/28 08:48:58;;;;;;;14.93;5.13;;;6.80;99.90;;;;;;4937344;29;20031;-72
2023/03/28 08:51:45;;;;;;;17.85;5.07;;;6.90;99.90;;;;;;4932160;29;20042;-71
2023/03/28 08:54:24;;;;;;;21.42;5.10;;;7.00;99.90;;;;;;4929546;29;20063;-71
2023/03/28 08:56:55;;;;;;;21.30;5.15;;;7.10;99.90;;;;;;4926025;29;20032;-71
2023/03/28 08:59:40;;;;;;;16.63;4.97;;;7.20;99.90;;;;;;4929336;29;20053;-71
2023/03/28 09:02:25;;;;;;;13.20;4.80;;;7.10;99.90;;;;;;4929751;29;20111;-71
2023/03/28 09:04:51;;;;;;;15.85;3.60;;;7.10;99.90;;;;;;4898741;29;20063;-71
2023/03/28 09:07:59;;;;;;;8.73;3.95;;;7.10;99.90;;;;;;4923176;29;20019;-72
2023/03/28 09:10:36;;;;;;;12.48;4.45;;;7.10;99.90;;;;;;4924035;29;20139;-70
2023/03/28 09:13:22;;;;;;;12.02;3.72;;;7.30;99.90;;;;;;4922208;29;20058;-71
2023/03/28 09:15:58;;;;;;;8.95;3.47;;;7.40;99.90;;;;;;4925397;29;20012;-70
2023/03/28 09:18:42;;;;;;;9.40;3.42;;;7.50;99.90;;;;;;4925928;29;20032;-70
2023/03/28 09:21:21;;;;;;;10.98;3.38;;;7.60;99.90;;;;;;4926514;29;20159;-72
2023/03/28 09:24:29;;;;;;;15.43;3.88;;;7.60;99.90;;;;;;4927137;29;20024;-70
2023/03/28 09:27:16;;;;;;;15.05;3.55;;;7.60;99.90;;;;;;4926734;29;20040;-71
2023/03/28 09:29:44;;;;;;;12.13;3.38;;;7.70;99.90;;;;;;4923413;29;20040;-71
2023/03/28 09:32:35;;;;;;;8.02;2.47;;;7.70;99.90;;;;;;4926218;29;20047;-72
2023/03/28 09:35:01;;;;;;;7.45;3.00;;;7.80;99.90;;;;;;4923358;29;20094;-72
2023/03/28 09:37:39;;;;;;;6.70;2.53;;;7.80;99.90;;;;;;4926276;29;20476;-72
2023/03/28 09:40:26;;;;;;;11.98;2.63;;;8.00;99.90;;;;;;4925575;29;20036;-71
2023/03/28 09:43:26;;;;;;;8.88;2.70;;;8.20;99.90;;;;;;4926096;29;20034;-71
2023/03/28 09:46:01;;;;;;;7.18;2.63;;;8.30;99.90;;;;;;4924399;29;20502;-71
2023/03/28 09:48:33;;;;;;;11.00;2.33;;;8.30;99.90;;;;;;4925259;29;20020;-71
2023/03/28 09:51:00;;;;;;;8.82;2.38;;;8.40;99.90;;;;;;4924896;29;20033;-72
2023/03/28 09:53:29;;;;;;;10.73;2.40;;;8.40;99.90;;;;;;4924186;29;20477;-72
2023/03/28 09:56:00;;;;;;;14.50;2.95;;;8.40;99.90;;;;;;4922309;29;20139;-73
2023/03/28 09:58:25;;;;;;;10.98;2.90;;;8.50;99.90;;;;;;4926186;29;20019;-72
2023/03/28 10:00:53;;;;;;;8.93;2.92;;;8.60;99.90;;;;;;4926739;29;20036;-73
2023/03/28 10:03:29;;;;;;;11.45;2.78;;;8.70;99.90;;;;;;4925397;29;20095;-71
2023/03/28 10:05:58;;;;;;;6.72;2.40;;;8.70;99.90;;;;;;4925671;29;20031;-71
2023/03/28 10:08:35;;;;;;;9.85;2.88;;;8.80;99.90;;;;;;4925689;29;20103;-72
2023/03/28 10:11:05;;;;;;;10.10;2.88;;;8.60;99.90;;;;;;4937776;28;20520;-72
2023/03/28 10:13:44;;;;;;;5.45;3.03;;;8.70;99.90;;;;;;4925815;29;20027;-71
2023/03/28 10:16:12;;;;;;;8.07;2.97;;;8.80;99.90;;;;;;4923917;29;20028;-72
2023/03/28 10:18:40;;;;;;;6.53;2.75;;;8.90;99.90;;;;;;4924158;29;20023;-72
2023/03/28 10:21:19;;;;;;;10.90;4.10;;;9.00;99.90;;;;;;4926405;29;20059;-73
2023/03/28 10:23:57;;;;;;;13.77;3.47;;;9.20;99.90;;;;;;4924252;29;20016;-75
2023/03/28 10:26:26;;;;;;;9.10;3.00;;;9.20;99.90;;;;;;4924130;29;20043;-72
2023/03/28 10:28:56;;;;;;;11.15;3.42;;;9.10;99.90;;;;;;4926490;29;20484;-73
2023/03/28 10:31:30;;;;;;;10.73;3.45;;;9.10;99.90;;;;;;4923991;29;20494;-73
2023/03/28 10:33:58;;;;;;;9.85;2.80;;;9.20;99.90;;;;;;4924478;29;20230;-74
2023/03/28 10:36:32;;;;;;;12.77;2.97;;;9.30;99.90;;;;;;4925589;29;20020;-73
2023/03/28 10:39:11;;;;;;;10.27;2.92;;;9.40;99.90;;;;;;4925055;29;20122;-73
2023/03/28 10:41:50;;;;;;;6.68;2.35;;;9.70;99.90;;;;;;4924536;29;20518;-73
2023/03/28 10:44:18;;;;;;;8.63;2.80;;;9.80;99.90;;;;;;4925713;29;20042;-72
2023/03/28 10:46:44;;;;;;;9.93;3.70;;;10.00;99.90;;;;;;4922594;29;20059;-76
2023/03/28 10:49:15;;;;;;;9.85;3.33;;;10.00;99.90;;;;;;4925051;29;20059;-72
2023/03/28 10:51:42;;;;;;;11.20;3.35;;;10.10;99.90;;;;;;4923202;29;20043;-71
2023/03/28 10:54:13;;;;;;;13.90;3.28;;;10.10;99.90;;;;;;4923096;29;20028;-71
2023/03/28 10:56:49;;;;;;;11.10;3.72;;;10.20;99.90;;;;;;4924044;29;20039;-75
2023/03/28 10:59:36;;;;;;;7.88;2.58;;;10.20;99.90;;;;;;4925136;29;20027;-72
2023/03/28 11:02:23;;;;;;;4.07;2.88;;;10.30;99.90;;;;;;4923659;29;20034;-71
2023/03/28 11:04:57;;;;;;;7.45;3.25;;;10.50;99.90;;;;;;4922023;29;20166;-72
2023/03/28 11:07:38;;;;;;;5.43;2.10;;;10.70;99.90;;;;;;4924157;29;20028;-73
2023/03/28 11:10:16;;;;;;;11.35;3.40;;;10.50;99.90;;;;;;4921632;29;20032;-73
2023/03/28 11:12:45;;;;;;;6.97;2.15;;;10.70;99.90;;;;;;4924386;29;20036;-72
2023/03/28 11:15:35;;;;;;;8.07;2.67;;;10.70;99.90;;;;;;4923171;29;20062;-75
2023/03/28 11:18:18;;;;;;;8.50;3.10;;;10.90;99.90;;;;;;4926035;29;20027;-72
2023/03/28 11:20:52;;;;;;;;;;;11.00;99.90;;;;;;4924570;29;20042;-74
2023/03/28 11:23:59;;;;;;;7.47;2.55;;;10.90;99.90;;;;;;4922913;29;19918;-74
2023/03/28 11:26:44;;;;;;;9.07;2.50;;;10.80;99.90;;;;;;4925955;29;20171;-74
2023/03/28 11:29:28;;;;;;;12.30;3.30;;;10.80;99.90;;;;;;4922832;29;20033;-73
2023/03/28 11:32:16;;;;;;;5.82;2.55;;;11.10;99.90;;;;;;4924538;29;20035;-74
2023/03/28 11:35:08;;;;;;;7.35;2.67;;;11.20;99.90;;;;;;4924287;29;20031;-73
2023/03/28 11:37:57;;;;;;;8.00;2.30;;;11.40;99.90;;;;;;4925582;29;20036;-73
2023/03/28 11:40:29;;;;;;;5.57;2.00;;;11.30;99.90;;;;;;4922450;29;20043;-72
2023/03/28 11:42:57;;;;;;;4.85;2.03;;;11.40;99.90;;;;;;4926340;29;20058;-72
2023/03/28 11:45:31;;;;;;;8.07;2.50;;;11.60;99.90;;;;;;4925494;29;20170;-72
2023/03/28 11:48:12;;;;;;;6.47;1.95;;;11.70;99.90;;;;;;4922868;29;20023;-72
2023/03/28 11:50:45;;;;;;;8.00;2.97;;;11.90;99.90;;;;;;4923594;29;21834;-72
2023/03/28 11:53:22;;;;;;;8.02;2.38;;;11.80;99.90;;;;;;4925150;29;20560;-72
2023/03/28 11:56:01;;;;;;;7.72;2.17;;;11.90;99.90;;;;;;4920995;28;20497;-75
2023/03/28 11:58:30;;;;;;;9.43;2.90;;;11.90;99.90;;;;;;4939081;28;20297;-76
2023/03/28 12:01:01;;;;;;;7.25;2.40;;;11.90;99.90;;;;;;4923565;29;20047;-78
2023/03/28 12:03:59;;;;;;;6.78;2.70;;;11.80;99.90;;;;;;4923783;29;20019;-74
2023/03/28 12:07:02;;;;;;;6.95;2.22;;;11.80;99.90;;;;;;4921606;29;20580;-70
2023/03/28 12:09:41;;;;;;;10.32;2.88;;;11.80;99.90;;;;;;4921223;29;20047;-70
2023/03/28 12:12:20;;;;;;;5.57;2.42;;;11.50;99.90;;;;;;4923518;29;20080;-78
2023/03/28 12:14:46;;;;;;;7.80;2.22;;;11.40;99.90;;;;;;4920863;29;20066;-76
2023/03/28 12:17:37;;;;;;;7.53;2.13;;;11.30;99.90;;;;;;4923715;29;20539;-73
2023/03/28 12:20:11;;;;;;;11.18;2.45;;;11.50;99.90;;;;;;4924555;29;20056;-72
2023/03/28 12:22:52;;;;;;;5.22;2.03;;;11.60;99.90;;;;;;4919371;29;20038;-72
2023/03/28 12:25:27;;;;;;;4.43;2.17;;;11.50;99.90;;;;;;4938527;28;20385;-73
2023/03/28 12:28:12;;;;;;;5.68;2.28;;;11.70;99.90;;;;;;4923222;29;20067;-73
2023/03/28 12:30:47;;;;;;;6.32;2.42;;;11.90;99.90;;;;;;4922936;29;20056;-73
2023/03/28 12:33:13;;;;;;;6.20;2.30;;;12.10;99.90;;;;;;4925377;29;20107;-74
2023/03/28 12:35:56;;;;;;;7.75;2.47;;;12.20;99.90;;;;;;4921255;29;20110;-72
2023/03/28 12:38:28;;;;;;;8.10;2.38;;;12.40;99.90;;;;;;4923738;29;20090;-72
2023/03/28 12:41:04;;;;;;;5.63;2.63;;;12.50;99.90;;;;;;4923956;29;20091;-73
2023/03/28 12:43:50;;;;;;;4.55;2.47;;;12.50;99.90;;;;;;4937604;28;20031;-75
2023/03/28 12:46:22;;;;;;;6.93;2.33;;;12.40;99.90;;;;;;4923165;29;20477;-77
2023/03/28 12:49:04;;;;;;;6.55;2.22;;;12.40;99.90;;;;;;4922441;29;20031;-76
2023/03/28 12:51:40;;;;;;;5.13;2.15;;;12.50;99.90;;;;;;4922518;29;20035;-75
2023/03/28 12:54:07;;;;;;;9.63;2.40;;;12.60;99.90;;;;;;4925438;29;20027;-73
2023/03/28 12:56:33;;;;;;;4.53;2.05;;;12.40;99.90;;;;;;4923324;29;20102;-74
2023/03/28 12:58:59;;;;;;;8.30;2.40;;;12.60;99.90;;;;;;4936827;28;20616;-72
2023/03/28 13:01:44;;;;;;;9.65;2.88;;;12.60;99.90;;;;;;4922361;29;20042;-76
2023/03/28 13:04:19;;;;;;;8.55;2.20;;;12.80;99.90;;;;;;4919930;29;20036;-72
2023/03/28 13:07:04;;;;;;;3.75;1.85;;;12.70;99.90;;;;;;4922991;29;20035;-78
2023/03/28 13:09:49;;;;;;;5.60;2.10;;;12.90;99.90;;;;;;4926745;29;20374;-72